Portada
METAR-TAF:

METAR-TAF

Aeropuertos :

Aeropuerto Internacional de Windhoek Hosea Kutako

Windhoek, Namibia

latitud: 22-29S, longitud: 017-28E, altitud: 1715 m

Observación

El informe se hizo hace 49 minutos, a las 13:00 UTC
Viento 8 kt del norte
Temperatura 31°C
Humedad 13%
Presión 1023 hPa
Visibilidad 10 km o más
sin nubes por debajo de 1500 m y sin presencia de cumulonimbus.

METAR: FYWH 251300Z 36008KT CAVOK 31/M01 Q1023 NOSIG

Hora: 15:49 (13:49 UTC)

Pronóstico

El informe se hizo hace 3 horas y 49 minutos, a las 10:00 UTC
Pronóstico válido del 25 a las 12 UTC al 26 a las 12 UTC
Viento 10 kt del norte
Visibilidad 10 km o más
sin nubes por debajo de 1500 m y sin presencia de cumulonimbus.

TAF: FYWH 251000Z 2512/2612 36010KT CAVOK

Observaciones y pronósticos meteorológicos de más de 4000 aeropuertos (mensajes METAR y TAF).

Los puntos amarillos y rojos representan las estaciones disponibles.

Ponga el ratón en el punto deseado para ver el nombre de la estación.

Haga clic para ver las observaciones y los pronósticos meteorológicos.

Para cambiar el mapa : haga clic en los botones verdes con una cruz de color negro para hacer un zoom, en el botón verde con un guión para alejar o en las flechas verdes para mapas adyacentes.


METAR-TAF: